sensor_id;sensor_type;location;lat;lon;timestamp;P1;durP1;ratioP1;P2;durP2;ratioP2
53287;SDS011;39172;45.550;12.072;2024-01-30T00:03:01;27.20;;;12.45;;
53287;SDS011;39172;45.550;12.072;2024-01-30T00:09:02;32.97;;;14.82;;
53287;SDS011;39172;45.550;12.072;2024-01-30T00:15:03;38.78;;;17.25;;
53287;SDS011;39172;45.550;12.072;2024-01-30T00:21:05;40.90;;;18.02;;
53287;SDS011;39172;45.550;12.072;2024-01-30T00:27:07;42.05;;;18.38;;
53287;SDS011;39172;45.550;12.072;2024-01-30T00:33:09;40.55;;;18.17;;
53287;SDS011;39172;45.550;12.072;2024-01-30T00:39:10;49.15;;;20.52;;
53287;SDS011;39172;45.550;12.072;2024-01-30T00:45:13;42.15;;;19.17;;
53287;SDS011;39172;45.550;12.072;2024-01-30T00:51:14;37.75;;;18.02;;
53287;SDS011;39172;45.550;12.072;2024-01-30T00:57:16;34.63;;;16.25;;
53287;SDS011;39172;45.550;12.072;2024-01-30T01:03:17;33.38;;;16.45;;
53287;SDS011;39172;45.550;12.072;2024-01-30T01:09:18;36.05;;;19.08;;
53287;SDS011;39172;45.550;12.072;2024-01-30T01:15:19;33.90;;;17.17;;
53287;SDS011;39172;45.550;12.072;2024-01-30T01:21:20;36.55;;;18.33;;
53287;SDS011;39172;45.550;12.072;2024-01-30T01:27:21;34.40;;;17.65;;
53287;SDS011;39172;45.550;12.072;2024-01-30T01:33:22;35.92;;;18.90;;
53287;SDS011;39172;45.550;12.072;2024-01-30T01:39:23;31.52;;;17.05;;
53287;SDS011;39172;45.550;12.072;2024-01-30T01:45:24;33.55;;;16.40;;
53287;SDS011;39172;45.550;12.072;2024-01-30T01:51:26;29.38;;;15.60;;
53287;SDS011;39172;45.550;12.072;2024-01-30T01:57:27;31.35;;;15.95;;
53287;SDS011;39172;45.550;12.072;2024-01-30T02:03:28;34.10;;;15.88;;
53287;SDS011;39172;45.550;12.072;2024-01-30T02:09:30;28.80;;;16.02;;
53287;SDS011;39172;45.550;12.072;2024-01-30T02:15:31;29.08;;;15.38;;
53287;SDS011;39172;45.550;12.072;2024-01-30T02:21:32;30.85;;;16.10;;
53287;SDS011;39172;45.550;12.072;2024-01-30T02:27:33;29.02;;;15.48;;
53287;SDS011;39172;45.550;12.072;2024-01-30T02:33:34;28.15;;;15.35;;
53287;SDS011;39172;45.550;12.072;2024-01-30T02:39:35;28.38;;;14.63;;
53287;SDS011;39172;45.550;12.072;2024-01-30T02:45:36;28.67;;;14.70;;
53287;SDS011;39172;45.550;12.072;2024-01-30T02:51:37;30.20;;;15.10;;
53287;SDS011;39172;45.550;12.072;2024-01-30T02:57:38;29.75;;;14.82;;
53287;SDS011;39172;45.550;12.072;2024-01-30T03:03:39;25.20;;;13.68;;
53287;SDS011;39172;45.550;12.072;2024-01-30T03:09:41;26.63;;;13.90;;
53287;SDS011;39172;45.550;12.072;2024-01-30T03:15:43;26.05;;;13.98;;
53287;SDS011;39172;45.550;12.072;2024-01-30T03:21:44;22.35;;;12.23;;
53287;SDS011;39172;45.550;12.072;2024-01-30T03:27:45;21.70;;;10.77;;
53287;SDS011;39172;45.550;12.072;2024-01-30T03:33:46;25.30;;;13.63;;
53287;SDS011;39172;45.550;12.072;2024-01-30T03:39:47;24.05;;;12.80;;
53287;SDS011;39172;45.550;12.072;2024-01-30T03:45:48;22.40;;;12.18;;
53287;SDS011;39172;45.550;12.072;2024-01-30T03:51:49;24.50;;;12.38;;
53287;SDS011;39172;45.550;12.072;2024-01-30T03:57:50;22.42;;;12.65;;
53287;SDS011;39172;45.550;12.072;2024-01-30T04:03:51;21.25;;;11.90;;
53287;SDS011;39172;45.550;12.072;2024-01-30T04:09:52;21.10;;;11.88;;
53287;SDS011;39172;45.550;12.072;2024-01-30T04:15:53;24.40;;;12.90;;
53287;SDS011;39172;45.550;12.072;2024-01-30T04:21:56;23.27;;;12.30;;
53287;SDS011;39172;45.550;12.072;2024-01-30T04:27:57;25.08;;;12.93;;
53287;SDS011;39172;45.550;12.072;2024-01-30T04:33:57;21.60;;;12.35;;
53287;SDS011;39172;45.550;12.072;2024-01-30T04:39:58;24.77;;;12.35;;
53287;SDS011;39172;45.550;12.072;2024-01-30T04:45:59;21.80;;;11.98;;
53287;SDS011;39172;45.550;12.072;2024-01-30T04:52:00;23.10;;;12.73;;
53287;SDS011;39172;45.550;12.072;2024-01-30T04:58:01;21.10;;;12.25;;
53287;SDS011;39172;45.550;12.072;2024-01-30T05:04:02;22.67;;;11.65;;
53287;SDS011;39172;45.550;12.072;2024-01-30T05:10:04;20.80;;;11.77;;
53287;SDS011;39172;45.550;12.072;2024-01-30T05:16:05;19.88;;;11.38;;
53287;SDS011;39172;45.550;12.072;2024-01-30T05:22:06;18.05;;;10.77;;
53287;SDS011;39172;45.550;12.072;2024-01-30T05:28:07;19.63;;;10.65;;
53287;SDS011;39172;45.550;12.072;2024-01-30T05:34:08;19.25;;;10.15;;
53287;SDS011;39172;45.550;12.072;2024-01-30T05:40:09;22.60;;;11.38;;
53287;SDS011;39172;45.550;12.072;2024-01-30T05:46:11;21.15;;;12.07;;
53287;SDS011;39172;45.550;12.072;2024-01-30T05:52:11;24.95;;;13.32;;
53287;SDS011;39172;45.550;12.072;2024-01-30T05:58:12;22.67;;;12.88;;
53287;SDS011;39172;45.550;12.072;2024-01-30T06:04:13;20.75;;;12.10;;
53287;SDS011;39172;45.550;12.072;2024-01-30T06:10:15;18.98;;;11.23;;
53287;SDS011;39172;45.550;12.072;2024-01-30T06:16:15;18.10;;;10.88;;
53287;SDS011;39172;45.550;12.072;2024-01-30T06:22:16;20.13;;;10.82;;
53287;SDS011;39172;45.550;12.072;2024-01-30T06:28:17;17.15;;;9.75;;
53287;SDS011;39172;45.550;12.072;2024-01-30T06:34:18;18.38;;;10.57;;
53287;SDS011;39172;45.550;12.072;2024-01-30T06:40:19;17.70;;;9.85;;
53287;SDS011;39172;45.550;12.072;2024-01-30T06:46:20;28.23;;;15.85;;
53287;SDS011;39172;45.550;12.072;2024-01-30T06:52:21;33.30;;;17.80;;
53287;SDS011;39172;45.550;12.072;2024-01-30T06:58:22;37.22;;;17.88;;
53287;SDS011;39172;45.550;12.072;2024-01-30T07:04:23;38.75;;;19.40;;
53287;SDS011;39172;45.550;12.072;2024-01-30T07:10:24;39.03;;;18.38;;
53287;SDS011;39172;45.550;12.072;2024-01-30T07:16:25;40.53;;;20.67;;
53287;SDS011;39172;45.550;12.072;2024-01-30T07:22:26;43.58;;;21.35;;
53287;SDS011;39172;45.550;12.072;2024-01-30T07:28:27;45.95;;;22.00;;
53287;SDS011;39172;45.550;12.072;2024-01-30T07:34:28;46.78;;;23.73;;
53287;SDS011;39172;45.550;12.072;2024-01-30T07:40:29;47.88;;;22.75;;
53287;SDS011;39172;45.550;12.072;2024-01-30T07:46:30;49.78;;;23.88;;
53287;SDS011;39172;45.550;12.072;2024-01-30T07:52:31;51.60;;;23.45;;
53287;SDS011;39172;45.550;12.072;2024-01-30T07:58:32;48.28;;;22.60;;
53287;SDS011;39172;45.550;12.072;2024-01-30T08:04:33;51.30;;;22.80;;
53287;SDS011;39172;45.550;12.072;2024-01-30T08:10:34;51.20;;;24.60;;
53287;SDS011;39172;45.550;12.072;2024-01-30T08:16:35;53.67;;;25.98;;
53287;SDS011;39172;45.550;12.072;2024-01-30T08:22:38;54.53;;;25.17;;
53287;SDS011;39172;45.550;12.072;2024-01-30T08:28:39;54.13;;;25.25;;
53287;SDS011;39172;45.550;12.072;2024-01-30T08:34:40;54.40;;;25.77;;
53287;SDS011;39172;45.550;12.072;2024-01-30T08:40:41;55.78;;;26.50;;
53287;SDS011;39172;45.550;12.072;2024-01-30T08:46:41;61.53;;;27.00;;
53287;SDS011;39172;45.550;12.072;2024-01-30T08:52:43;64.03;;;27.90;;
53287;SDS011;39172;45.550;12.072;2024-01-30T08:58:43;63.70;;;28.98;;
53287;SDS011;39172;45.550;12.072;2024-01-30T09:04:44;61.42;;;29.40;;
53287;SDS011;39172;45.550;12.072;2024-01-30T09:10:45;64.80;;;29.70;;
53287;SDS011;39172;45.550;12.072;2024-01-30T09:16:46;66.18;;;31.02;;
53287;SDS011;39172;45.550;12.072;2024-01-30T09:22:49;88.20;;;40.85;;
53287;SDS011;39172;45.550;12.072;2024-01-30T09:28:50;45.22;;;23.00;;
53287;SDS011;39172;45.550;12.072;2024-01-30T09:34:51;57.30;;;27.42;;
53287;SDS011;39172;45.550;12.072;2024-01-30T09:40:53;54.38;;;27.08;;
53287;SDS011;39172;45.550;12.072;2024-01-30T09:46:55;55.85;;;28.13;;
53287;SDS011;39172;45.550;12.072;2024-01-30T09:52:59;58.15;;;27.63;;
53287;SDS011;39172;45.550;12.072;2024-01-30T09:59:00;56.38;;;26.48;;
53287;SDS011;39172;45.550;12.072;2024-01-30T10:05:01;60.03;;;28.25;;
53287;SDS011;39172;45.550;12.072;2024-01-30T10:11:02;61.40;;;29.15;;
53287;SDS011;39172;45.550;12.072;2024-01-30T10:17:04;56.45;;;28.20;;
53287;SDS011;39172;45.550;12.072;2024-01-30T10:23:06;63.63;;;29.15;;
53287;SDS011;39172;45.550;12.072;2024-01-30T10:29:08;63.35;;;29.45;;
53287;SDS011;39172;45.550;12.072;2024-01-30T10:35:09;54.38;;;25.23;;
53287;SDS011;39172;45.550;12.072;2024-01-30T10:41:11;64.63;;;30.02;;
53287;SDS011;39172;45.550;12.072;2024-01-30T10:47:14;57.78;;;26.42;;
53287;SDS011;39172;45.550;12.072;2024-01-30T10:53:18;54.72;;;26.25;;
53287;SDS011;39172;45.550;12.072;2024-01-30T10:59:19;60.78;;;28.75;;
53287;SDS011;39172;45.550;12.072;2024-01-30T11:05:25;47.10;;;23.80;;
53287;SDS011;39172;45.550;12.072;2024-01-30T11:11:29;62.70;;;29.73;;
53287;SDS011;39172;45.550;12.072;2024-01-30T11:24:07;53.47;;;26.20;;
53287;SDS011;39172;45.550;12.072;2024-01-30T11:30:08;48.03;;;23.77;;
53287;SDS011;39172;45.550;12.072;2024-01-30T11:36:10;44.13;;;23.08;;
53287;SDS011;39172;45.550;12.072;2024-01-30T11:42:14;45.63;;;22.45;;
53287;SDS011;39172;45.550;12.072;2024-01-30T11:48:15;45.90;;;22.42;;
53287;SDS011;39172;45.550;12.072;2024-01-30T11:54:16;42.78;;;22.23;;
53287;SDS011;39172;45.550;12.072;2024-01-30T12:00:17;43.60;;;21.55;;
53287;SDS011;39172;45.550;12.072;2024-01-30T12:06:19;37.45;;;18.83;;
53287;SDS011;39172;45.550;12.072;2024-01-30T12:12:22;36.72;;;19.75;;
53287;SDS011;39172;45.550;12.072;2024-01-30T12:18:23;36.28;;;18.45;;
53287;SDS011;39172;45.550;12.072;2024-01-30T12:24:25;33.83;;;18.98;;
53287;SDS011;39172;45.550;12.072;2024-01-30T12:30:26;30.63;;;15.90;;
53287;SDS011;39172;45.550;12.072;2024-01-30T12:36:29;32.33;;;17.08;;
53287;SDS011;39172;45.550;12.072;2024-01-30T12:42:31;32.40;;;16.35;;
53287;SDS011;39172;45.550;12.072;2024-01-30T12:48:32;30.35;;;14.15;;
53287;SDS011;39172;45.550;12.072;2024-01-30T12:54:33;33.67;;;14.90;;
53287;SDS011;39172;45.550;12.072;2024-01-30T13:00:34;29.98;;;13.60;;
53287;SDS011;39172;45.550;12.072;2024-01-30T13:06:35;29.40;;;14.45;;
53287;SDS011;39172;45.550;12.072;2024-01-30T13:12:36;32.60;;;16.27;;
53287;SDS011;39172;45.550;12.072;2024-01-30T13:18:38;32.63;;;15.93;;
53287;SDS011;39172;45.550;12.072;2024-01-30T13:24:39;34.13;;;15.98;;
53287;SDS011;39172;45.550;12.072;2024-01-30T13:30:40;29.70;;;15.25;;
53287;SDS011;39172;45.550;12.072;2024-01-30T13:36:41;37.67;;;16.92;;
53287;SDS011;39172;45.550;12.072;2024-01-30T13:42:42;38.25;;;19.20;;
53287;SDS011;39172;45.550;12.072;2024-01-30T13:48:43;41.42;;;19.98;;
53287;SDS011;39172;45.550;12.072;2024-01-30T13:54:44;37.67;;;17.48;;
53287;SDS011;39172;45.550;12.072;2024-01-30T14:00:45;34.40;;;17.98;;
53287;SDS011;39172;45.550;12.072;2024-01-30T14:06:46;38.63;;;18.55;;
53287;SDS011;39172;45.550;12.072;2024-01-30T14:12:47;39.63;;;18.90;;
53287;SDS011;39172;45.550;12.072;2024-01-30T14:18:51;36.63;;;18.02;;
53287;SDS011;39172;45.550;12.072;2024-01-30T14:24:52;35.40;;;17.15;;
53287;SDS011;39172;45.550;12.072;2024-01-30T14:30:53;35.25;;;17.77;;
53287;SDS011;39172;45.550;12.072;2024-01-30T14:36:54;33.97;;;16.40;;
53287;SDS011;39172;45.550;12.072;2024-01-30T14:42:55;32.97;;;15.40;;
53287;SDS011;39172;45.550;12.072;2024-01-30T14:48:56;33.75;;;16.73;;
53287;SDS011;39172;45.550;12.072;2024-01-30T14:54:58;33.50;;;16.52;;
53287;SDS011;39172;45.550;12.072;2024-01-30T15:00:59;33.75;;;18.33;;
53287;SDS011;39172;45.550;12.072;2024-01-30T15:07:00;38.33;;;19.27;;
53287;SDS011;39172;45.550;12.072;2024-01-30T15:13:01;47.45;;;24.65;;
53287;SDS011;39172;45.550;12.072;2024-01-30T15:19:02;49.40;;;24.13;;
53287;SDS011;39172;45.550;12.072;2024-01-30T15:25:05;50.05;;;24.98;;
53287;SDS011;39172;45.550;12.072;2024-01-30T15:31:06;54.42;;;25.77;;
53287;SDS011;39172;45.550;12.072;2024-01-30T15:37:07;54.90;;;25.33;;
53287;SDS011;39172;45.550;12.072;2024-01-30T15:43:08;57.80;;;27.48;;
53287;SDS011;39172;45.550;12.072;2024-01-30T15:49:10;64.53;;;28.20;;
53287;SDS011;39172;45.550;12.072;2024-01-30T15:55:11;59.97;;;27.95;;
53287;SDS011;39172;45.550;12.072;2024-01-30T16:01:12;68.25;;;31.50;;
53287;SDS011;39172;45.550;12.072;2024-01-30T16:07:14;54.05;;;25.08;;
53287;SDS011;39172;45.550;12.072;2024-01-30T16:13:15;70.30;;;32.33;;
53287;SDS011;39172;45.550;12.072;2024-01-30T16:19:16;65.93;;;30.77;;
53287;SDS011;39172;45.550;12.072;2024-01-30T16:25:17;72.18;;;32.20;;
53287;SDS011;39172;45.550;12.072;2024-01-30T16:31:18;90.00;;;39.38;;
53287;SDS011;39172;45.550;12.072;2024-01-30T16:37:21;92.93;;;40.65;;
53287;SDS011;39172;45.550;12.072;2024-01-30T16:43:22;81.60;;;36.33;;
53287;SDS011;39172;45.550;12.072;2024-01-30T16:49:22;85.00;;;36.83;;
53287;SDS011;39172;45.550;12.072;2024-01-30T16:55:23;80.93;;;37.13;;
53287;SDS011;39172;45.550;12.072;2024-01-30T17:01:27;79.82;;;35.45;;
53287;SDS011;39172;45.550;12.072;2024-01-30T17:07:28;87.07;;;38.22;;
53287;SDS011;39172;45.550;12.072;2024-01-30T17:13:35;87.80;;;36.85;;
53287;SDS011;39172;45.550;12.072;2024-01-30T17:19:36;76.65;;;34.20;;
53287;SDS011;39172;45.550;12.072;2024-01-30T17:25:37;95.30;;;41.05;;
53287;SDS011;39172;45.550;12.072;2024-01-30T17:31:38;85.75;;;37.53;;
53287;SDS011;39172;45.550;12.072;2024-01-30T17:37:39;88.47;;;37.85;;
53287;SDS011;39172;45.550;12.072;2024-01-30T17:43:41;94.80;;;40.92;;
53287;SDS011;39172;45.550;12.072;2024-01-30T17:49:42;96.47;;;41.75;;
53287;SDS011;39172;45.550;12.072;2024-01-30T17:55:43;102.88;;;43.53;;
53287;SDS011;39172;45.550;12.072;2024-01-30T18:01:47;102.55;;;43.53;;
53287;SDS011;39172;45.550;12.072;2024-01-30T18:07:48;94.05;;;44.17;;
53287;SDS011;39172;45.550;12.072;2024-01-30T18:13:49;112.03;;;47.80;;
53287;SDS011;39172;45.550;12.072;2024-01-30T18:19:52;100.55;;;45.30;;
53287;SDS011;39172;45.550;12.072;2024-01-30T18:25:53;104.20;;;44.67;;
53287;SDS011;39172;45.550;12.072;2024-01-30T18:32:00;105.22;;;46.53;;
53287;SDS011;39172;45.550;12.072;2024-01-30T18:38:01;105.15;;;46.90;;
53287;SDS011;39172;45.550;12.072;2024-01-30T18:44:04;108.47;;;47.47;;
53287;SDS011;39172;45.550;12.072;2024-01-30T18:50:05;111.03;;;45.60;;
53287;SDS011;39172;45.550;12.072;2024-01-30T18:56:06;117.53;;;51.08;;
53287;SDS011;39172;45.550;12.072;2024-01-30T19:02:08;120.50;;;52.53;;
53287;SDS011;39172;45.550;12.072;2024-01-30T19:08:09;114.25;;;49.67;;
53287;SDS011;39172;45.550;12.072;2024-01-30T19:14:10;122.07;;;50.90;;
53287;SDS011;39172;45.550;12.072;2024-01-30T19:20:11;112.57;;;49.60;;
53287;SDS011;39172;45.550;12.072;2024-01-30T19:26:12;110.53;;;49.85;;
53287;SDS011;39172;45.550;12.072;2024-01-30T19:32:14;94.50;;;42.90;;
53287;SDS011;39172;45.550;12.072;2024-01-30T19:38:15;94.28;;;41.75;;
53287;SDS011;39172;45.550;12.072;2024-01-30T19:44:16;103.18;;;44.63;;
53287;SDS011;39172;45.550;12.072;2024-01-30T19:50:17;91.55;;;41.58;;
53287;SDS011;39172;45.550;12.072;2024-01-30T19:56:18;89.30;;;39.83;;
53287;SDS011;39172;45.550;12.072;2024-01-30T20:02:19;122.22;;;53.30;;
53287;SDS011;39172;45.550;12.072;2024-01-30T20:08:22;115.97;;;46.92;;
53287;SDS011;39172;45.550;12.072;2024-01-30T20:14:23;95.88;;;42.55;;
53287;SDS011;39172;45.550;12.072;2024-01-30T20:20:24;97.70;;;43.58;;
53287;SDS011;39172;45.550;12.072;2024-01-30T20:26:25;122.22;;;50.42;;
53287;SDS011;39172;45.550;12.072;2024-01-30T20:32:26;122.90;;;52.22;;
53287;SDS011;39172;45.550;12.072;2024-01-30T20:38:27;138.73;;;58.78;;
53287;SDS011;39172;45.550;12.072;2024-01-30T20:44:28;147.48;;;56.90;;
53287;SDS011;39172;45.550;12.072;2024-01-30T20:50:30;139.73;;;58.63;;
53287;SDS011;39172;45.550;12.072;2024-01-30T20:56:31;161.35;;;64.05;;
53287;SDS011;39172;45.550;12.072;2024-01-30T21:02:32;156.10;;;63.03;;
53287;SDS011;39172;45.550;12.072;2024-01-30T21:08:33;176.13;;;69.22;;
53287;SDS011;39172;45.550;12.072;2024-01-30T21:14:34;188.27;;;74.30;;
53287;SDS011;39172;45.550;12.072;2024-01-30T21:20:36;184.75;;;75.60;;
53287;SDS011;39172;45.550;12.072;2024-01-30T21:26:37;149.07;;;65.35;;
53287;SDS011;39172;45.550;12.072;2024-01-30T21:32:38;161.63;;;67.72;;
53287;SDS011;39172;45.550;12.072;2024-01-30T21:38:39;184.02;;;74.40;;
53287;SDS011;39172;45.550;12.072;2024-01-30T21:44:40;181.50;;;75.13;;
53287;SDS011;39172;45.550;12.072;2024-01-30T21:50:41;220.55;;;87.93;;
53287;SDS011;39172;45.550;12.072;2024-01-30T21:56:43;171.13;;;71.95;;
53287;SDS011;39172;45.550;12.072;2024-01-30T22:02:43;188.77;;;76.32;;
53287;SDS011;39172;45.550;12.072;2024-01-30T22:08:45;169.82;;;73.28;;
53287;SDS011;39172;45.550;12.072;2024-01-30T22:14:46;171.32;;;74.68;;
53287;SDS011;39172;45.550;12.072;2024-01-30T22:20:47;183.20;;;77.57;;
53287;SDS011;39172;45.550;12.072;2024-01-30T22:26:48;137.48;;;59.58;;
53287;SDS011;39172;45.550;12.072;2024-01-30T22:32:49;136.60;;;58.25;;
53287;SDS011;39172;45.550;12.072;2024-01-30T22:38:50;145.63;;;59.65;;
53287;SDS011;39172;45.550;12.072;2024-01-30T22:44:51;88.28;;;41.70;;
53287;SDS011;39172;45.550;12.072;2024-01-30T22:50:53;101.78;;;45.85;;
53287;SDS011;39172;45.550;12.072;2024-01-30T22:56:53;126.20;;;52.50;;
53287;SDS011;39172;45.550;12.072;2024-01-30T23:02:54;160.48;;;66.75;;
53287;SDS011;39172;45.550;12.072;2024-01-30T23:08:57;124.47;;;54.58;;
53287;SDS011;39172;45.550;12.072;2024-01-30T23:14:58;107.72;;;46.97;;
53287;SDS011;39172;45.550;12.072;2024-01-30T23:21:00;116.22;;;49.25;;
53287;SDS011;39172;45.550;12.072;2024-01-30T23:27:01;102.25;;;46.05;;
53287;SDS011;39172;45.550;12.072;2024-01-30T23:33:02;100.25;;;43.65;;
53287;SDS011;39172;45.550;12.072;2024-01-30T23:39:03;101.95;;;43.53;;
53287;SDS011;39172;45.550;12.072;2024-01-30T23:45:04;107.07;;;46.15;;
53287;SDS011;39172;45.550;12.072;2024-01-30T23:51:05;110.63;;;46.47;;
53287;SDS011;39172;45.550;12.072;2024-01-30T23:57:06;106.53;;;44.13;;
